Queen Of Burnaby — VCVV — position and weather

sailwx.info

Track history (hours):
 
Tides and Currents Weather Stations Pressure Air Temp Water Temp Dewpoint Dewpoint Depression Visibility Wind Speed Wind Dir Waves Ship Positions

Queen Of Burnaby

Last reported at 2014-Sep-19 21:15 UTC. Time now 2014-Sep-19 21:52 UTC.
Position N 49°44' W 124°55'.

Length 130 m; draft 4 m.

MMSI: 316001246.

Date/timePositionNaut miles runAvg speedWind from/ knotsBaromVisibWave heightAir tempDewpointWater temp
2014-Sep-19 21:15N 49°44' W 124°55'0 0.0
2014-Sep-19 20:21N 49°44' W 124°55'1012.3
2014-Sep-19 19:30N 49°48' W 124°40'6 5.8
2014-Sep-19 18:30N 49°50' W 124°32'1213.0
2014-Sep-19 17:33N 49°46' W 124°50'4 3.8
2014-Sep-19 16:33N 49°44' W 124°55'1313.3
2014-Sep-19 15:33N 49°49' W 124°36'1 0.6
2014-Sep-19 14:33N 49°50' W 124°36'1313.1
2014-Sep-19 13:33N 49°45' W 124°55'0 0.1
2014-Sep-19 12:33N 49°44' W 124°55'0 0.0
2014-Sep-19 11:33N 49°44' W 124°55'0 0.0
2014-Sep-19 10:33N 49°44' W 124°55'0 0.0
2014-Sep-19 09:27N 49°44' W 124°55'0 0.0
2014-Sep-19 08:33N 49°44' W 124°55'0 0.0
2014-Sep-19 07:33N 49°44' W 124°55'0 0.0
2014-Sep-19 06:27N 49°44' W 124°55'0 0.0
2014-Sep-19 05:33N 49°44' W 124°55'6 6.2
2014-Sep-19 04:32N 49°47' W 124°46'10 8.4
2014-Sep-19 03:24N 49°50' W 124°33'1214.4
2014-Sep-19 02:33N 49°46' W 124°51'3 3.1
2014-Sep-19 01:29N 49°45' W 124°55'1212.9
2014-Sep-19 00:33N 49°49' W 124°38'4 3.7
2014-Sep-18 23:32N 49°50' W 124°32'1313.1
2014-Sep-18 22:30N 49°46' W 124°51'3 2.9
2014-Sep-18 21:31N 49°44' W 124°55'0 0.0
2014-Sep-18 20:25N 49°44' W 124°55'8 9.5
2014-Sep-18 19:32N 49°48' W 124°43'8 7.3
2014-Sep-18 18:28N 49°50' W 124°32'1212.7
2014-Sep-18 17:33N 49°46' W 124°49'5 4.6
2014-Sep-18 16:33N 49°44' W 124°55'1212.4
2014-Sep-18 15:33N 49°49' W 124°37'1 1.4
2014-Sep-18 14:33N 49°50' W 124°36'1413.6
2014-Sep-18 13:33N 49°44' W 124°55'0 0.1
2014-Sep-18 12:31N 49°44' W 124°55'0 0.0
2014-Sep-18 11:19N 49°44' W 124°55'0 0.0
2014-Sep-18 10:31N 49°44' W 124°55'0 0.0
2014-Sep-18 09:19N 49°44' W 124°55'0 0.0
2014-Sep-18 07:19N 49°44' W 124°55'0 0.0
2014-Sep-18 06:31N 49°44' W 124°55'0 0.0
2014-Sep-18 05:25N 49°44' W 124°55'5 6.1
2014-Sep-18 04:33N 49°46' W 124°48'11 7.9
2014-Sep-18 03:11N 49°50' W 124°32'913.9
2014-Sep-18 02:33N 49°47' W 124°45'7 3.4
2014-Sep-18 00:28N 49°44' W 124°55'0 0.0
2014-Sep-17 23:32N 49°44' W 124°55'0 0.1
2014-Sep-17 22:33N 49°45' W 124°55'0 0.0
2014-Sep-17 20:18N 49°44' W 124°55'1114.4
2014-Sep-17 19:32N 49°48' W 124°39'5 4.5
2014-Sep-17 18:27N 49°50' W 124°33'1213.4
2014-Sep-17 17:33N 49°46' W 124°50'4 3.3
2014-Sep-17 16:29N 49°45' W 124°55'1314.0
2014-Sep-17 15:33N 49°49' W 124°36'1 0.9
2014-Sep-17 14:34N 49°50' W 124°36'1413.7
2014-Sep-17 13:33N 49°45' W 124°55'0 0.1
2014-Sep-17 12:10N 49°44' W 124°55'0 0.0
2014-Sep-17 10:28N 49°44' W 124°55'0 0.0
2014-Sep-17 05:05N 49°44' W 124°55'713.0
2014-Sep-17 04:32N 49°47' W 124°45'9 9.3
2014-Sep-17 03:33N 49°50' W 124°32'1312.9
2014-Sep-17 02:31N 49°46' W 124°51'3 2.7
2014-Sep-17 01:31N 49°44' W 124°55'1312.9
2014-Sep-17 00:32N 49°49' W 124°37'3 3.2
2014-Sep-16 23:30N 49°50' W 124°32'1313.7
2014-Sep-16 22:33N 49°45' W 124°51'3 1.3
2014-Sep-16 20:16N 49°44' W 124°55'1012.7
2014-Sep-16 19:30N 49°48' W 124°41'6 5.9
2014-Sep-16 18:28N 49°50' W 124°32'1212.8
2014-Sep-16 17:33N 49°45' W 124°49'4 4.0
2014-Sep-16 16:30N 49°44' W 124°55'1213.2
2014-Sep-16 15:33N 49°49' W 124°37'1 1.3
2014-Sep-16 14:33N 49°50' W 124°36'1413.6
2014-Sep-16 13:33N 49°44' W 124°55'0 0.0
2014-Sep-16 06:19N 49°44' W 124°55'0 0.0
2014-Sep-16 05:13N 49°44' W 124°55'7 9.9
2014-Sep-16 04:33N 49°47' W 124°46'9 8.6
2014-Sep-16 03:27N 49°50' W 124°32'1414.9
2014-Sep-16 02:33N 49°45' W 124°52'2 2.3
2014-Sep-16 01:33N 49°44' W 124°55'1212.4
2014-Sep-16 00:33N 49°49' W 124°37'4 3.4
2014-Sep-15 23:30N 49°50' W 124°32'1414.6
2014-Sep-15 22:33N 49°45' W 124°52'2 1.0
2014-Sep-15 20:20N 49°44' W 124°55'1112.0
2014-Sep-15 19:24N 49°48' W 124°39'5 5.0
2014-Sep-15 18:24N 49°50' W 124°32'1213.6
2014-Sep-15 17:33N 49°46' W 124°49'5 4.3
2014-Sep-15 16:30N 49°44' W 124°55'1313.6
2014-Sep-15 15:33N 49°50' W 124°37'1 0.9
2014-Sep-15 14:34N 49°50' W 124°36'1413.6
2014-Sep-15 13:33N 49°44' W 124°55'0 0.0
2014-Sep-15 07:10N 49°44' W 124°55'0 0.0
2014-Sep-15 06:33N 49°44' W 124°55'0 0.0
2014-Sep-15 05:33N 49°44' W 124°55'8 8.3
2014-Sep-15 04:33N 49°47' W 124°43'8 7.3
2014-Sep-15 03:30N 49°50' W 124°32'1414.7
2014-Sep-15 02:33N 49°45' W 124°53'1 0.9
2014-Sep-15 01:28N 49°46' W 124°51'10 5.4
2014-Sep-14 23:33N 49°49' W 124°36'1312.9
2014-Sep-14 22:32N 49°44' W 124°55'0 0.0
2014-Sep-14 21:32N 49°44' W 124°55'0 0.0
2014-Sep-14 20:20N 49°44' W 124°55'1012.4
2014-Sep-14 19:33N 49°48' W 124°42'7 6.3
2014-Sep-14 18:30N 49°50' W 124°32'1212.6
2014-Sep-14 17:33N 49°46' W 124°49'4 4.2
2014-Sep-14 16:33N 49°44' W 124°55'1212.3
2014-Sep-14 15:33N 49°49' W 124°38'1 1.3
2014-Sep-14 14:33N 49°50' W 124°36'1313.5
2014-Sep-14 13:33N 49°44' W 124°55'0 0.0
2014-Sep-14 06:23N 49°44' W 124°55'0 0.0
2014-Sep-14 05:29N 49°44' W 124°55'6 6.1
2014-Sep-14 04:33N 49°47' W 124°47'10 7.7
2014-Sep-14 03:12N 49°50' W 124°32'811.9
2014-Sep-14 02:33N 49°47' W 124°43'9 1.7
2014-Sep-13 21:28N 49°44' W 124°55'0 0.0
2014-Sep-13 20:32N 49°44' W 124°55'1110.2
2014-Sep-13 19:27N 49°48' W 124°39'5 4.5
2014-Sep-13 18:24N 49°50' W 124°33'1213.7
2014-Sep-13 17:33N 49°46' W 124°49'4 4.1
2014-Sep-13 16:32N 49°44' W 124°55'1211.6
2014-Sep-13 15:29N 49°49' W 124°38'1 1.5
2014-Sep-13 14:33N 49°50' W 124°36'1413.5
2014-Sep-13 13:33N 49°44' W 124°55'0 0.0
2014-Sep-13 09:32N 49°44' W 124°55'0 0.0
2014-Sep-13 08:14N 49°44' W 124°55'0 0.0
2014-Sep-13 07:32N 49°44' W 124°55'0 0.0
2014-Sep-13 05:20N 49°44' W 124°55'910.6
2014-Sep-13 04:29N 49°48' W 124°43'7 7.2
2014-Sep-13 03:30N 49°50' W 124°32'1414.9
2014-Sep-13 02:33N 49°45' W 124°53'2 1.7
2014-Sep-13 01:33N 49°44' W 124°55'1212.4
2014-Sep-13 00:33N 49°49' W 124°38'3 3.2
2014-Sep-12 23:27N 49°50' W 124°33'1314.4
2014-Sep-12 22:33N 49°45' W 124°51'3 2.8
2014-Sep-12 21:32N 49°44' W 124°55'0 0.0
2014-Sep-12 20:32N 49°44' W 124°55'10 9.8
2014-Sep-12 19:32N 49°48' W 124°41'6 6.3
2014-Sep-12 18:30N 49°50' W 124°32'1212.8
2014-Sep-12 17:33N 49°46' W 124°49'4 3.6
2014-Sep-12 16:30N 49°45' W 124°55'1213.1
2014-Sep-12 15:34N 49°49' W 124°37'1 1.4
2014-Sep-12 14:33N 49°50' W 124°36'1413.5
2014-Sep-12 13:33N 49°44' W 124°55'0 0.0
2014-Sep-12 05:28N 49°44' W 124°55'6 6.1
2014-Sep-12 04:33N 49°47' W 124°47'1110.5
2014-Sep-12 03:33N 49°50' W 124°32'1312.8
2014-Sep-12 02:34N 49°46' W 124°50'4 3.5
2014-Sep-12 01:33N 49°44' W 124°55'1312.7
2014-Sep-12 00:33N 49°49' W 124°37'3 2.5
2014-Sep-11 23:27N 49°50' W 124°33'1213.7
2014-Sep-11 22:33N 49°46' W 124°51'3 3.1
2014-Sep-11 21:33N 49°44' W 124°55'0 0.0
2014-Sep-11 20:24N 49°44' W 124°55'1113.4
2014-Sep-11 19:33N 49°48' W 124°39'5 4.8
2014-Sep-11 18:32N 49°50' W 124°32'1212.0
2014-Sep-11 17:33N 49°46' W 124°49'4 4.2
2014-Sep-11 16:30N 49°44' W 124°55'1212.9
2014-Sep-11 15:33N 49°49' W 124°38'2 1.9
2014-Sep-11 14:33N 49°50' W 124°35'1414.0
2014-Sep-11 13:33N 49°45' W 124°55'0 0.0
2014-Sep-11 09:28N 49°44' W 124°55'0 0.0
2014-Sep-11 08:28N 49°44' W 124°55'9 1.5
2014-Sep-11 02:33N 49°48' W 124°43'5 0.5
2014-Sep-10 17:33N 49°46' W 124°50'2 1.3
2014-Sep-10 16:19N 49°46' W 124°52'11 6.0
2014-Sep-10 14:32N 49°49' W 124°37'0 0.0
2014-Sep-10 03:12N 49°49' W 124°37'  
Track history (hours):
 
Tides and Currents Weather Stations Pressure Air Temp Water Temp Dewpoint Dewpoint Depression Visibility Wind Speed Wind Dir Waves Ship Positions

Queen Of Burnaby

Last reported at 2014-Sep-19 21:15 UTC. Time now 2014-Sep-19 21:52 UTC.
Position N 49°44' W 124°55'.

Length 130 m; draft 4 m.

MMSI: 316001246.

Date/timePositionNaut miles runAvg speedWind from/ knotsBaromVisibWave heightAir tempDewpointWater temp
2014-Sep-19 21:15N 49°44' W 124°55'0 0.0
2014-Sep-19 20:21N 49°44' W 124°55'1012.3
2014-Sep-19 19:30N 49°48' W 124°40'6 5.8
2014-Sep-19 18:30N 49°50' W 124°32'1213.0
2014-Sep-19 17:33N 49°46' W 124°50'4 3.8
2014-Sep-19 16:33N 49°44' W 124°55'1313.3
2014-Sep-19 15:33N 49°49' W 124°36'1 0.6
2014-Sep-19 14:33N 49°50' W 124°36'1313.1
2014-Sep-19 13:33N 49°45' W 124°55'0 0.1
2014-Sep-19 12:33N 49°44' W 124°55'0 0.0
2014-Sep-19 11:33N 49°44' W 124°55'0 0.0
2014-Sep-19 10:33N 49°44' W 124°55'0 0.0
2014-Sep-19 09:27N 49°44' W 124°55'0 0.0
2014-Sep-19 08:33N 49°44' W 124°55'0 0.0
2014-Sep-19 07:33N 49°44' W 124°55'0 0.0
2014-Sep-19 06:27N 49°44' W 124°55'0 0.0
2014-Sep-19 05:33N 49°44' W 124°55'6 6.2
2014-Sep-19 04:32N 49°47' W 124°46'10 8.4
2014-Sep-19 03:24N 49°50' W 124°33'1214.4
2014-Sep-19 02:33N 49°46' W 124°51'3 3.1
2014-Sep-19 01:29N 49°45' W 124°55'1212.9
2014-Sep-19 00:33N 49°49' W 124°38'4 3.7
2014-Sep-18 23:32N 49°50' W 124°32'1313.1
2014-Sep-18 22:30N 49°46' W 124°51'3 2.9
2014-Sep-18 21:31N 49°44' W 124°55'0 0.0
2014-Sep-18 20:25N 49°44' W 124°55'8 9.5
2014-Sep-18 19:32N 49°48' W 124°43'8 7.3
2014-Sep-18 18:28N 49°50' W 124°32'1212.7
2014-Sep-18 17:33N 49°46' W 124°49'5 4.6
2014-Sep-18 16:33N 49°44' W 124°55'1212.4
2014-Sep-18 15:33N 49°49' W 124°37'1 1.4
2014-Sep-18 14:33N 49°50' W 124°36'1413.6
2014-Sep-18 13:33N 49°44' W 124°55'0 0.1
2014-Sep-18 12:31N 49°44' W 124°55'0 0.0
2014-Sep-18 11:19N 49°44' W 124°55'0 0.0
2014-Sep-18 10:31N 49°44' W 124°55'0 0.0
2014-Sep-18 09:19N 49°44' W 124°55'0 0.0
2014-Sep-18 07:19N 49°44' W 124°55'0 0.0
2014-Sep-18 06:31N 49°44' W 124°55'0 0.0
2014-Sep-18 05:25N 49°44' W 124°55'5 6.1
2014-Sep-18 04:33N 49°46' W 124°48'11 7.9
2014-Sep-18 03:11N 49°50' W 124°32'913.9
2014-Sep-18 02:33N 49°47' W 124°45'7 3.4
2014-Sep-18 00:28N 49°44' W 124°55'0 0.0
2014-Sep-17 23:32N 49°44' W 124°55'0 0.1
2014-Sep-17 22:33N 49°45' W 124°55'0 0.0
2014-Sep-17 20:18N 49°44' W 124°55'1114.4
2014-Sep-17 19:32N 49°48' W 124°39'5 4.5
2014-Sep-17 18:27N 49°50' W 124°33'1213.4
2014-Sep-17 17:33N 49°46' W 124°50'4 3.3
2014-Sep-17 16:29N 49°45' W 124°55'1314.0
2014-Sep-17 15:33N 49°49' W 124°36'1 0.9
2014-Sep-17 14:34N 49°50' W 124°36'1413.7
2014-Sep-17 13:33N 49°45' W 124°55'0 0.1
2014-Sep-17 12:10N 49°44' W 124°55'0 0.0
2014-Sep-17 10:28N 49°44' W 124°55'0 0.0
2014-Sep-17 05:05N 49°44' W 124°55'713.0
2014-Sep-17 04:32N 49°47' W 124°45'9 9.3
2014-Sep-17 03:33N 49°50' W 124°32'1312.9
2014-Sep-17 02:31N 49°46' W 124°51'3 2.7
2014-Sep-17 01:31N 49°44' W 124°55'1312.9
2014-Sep-17 00:32N 49°49' W 124°37'3 3.2
2014-Sep-16 23:30N 49°50' W 124°32'1313.7
2014-Sep-16 22:33N 49°45' W 124°51'3 1.3
2014-Sep-16 20:16N 49°44' W 124°55'1012.7
2014-Sep-16 19:30N 49°48' W 124°41'6 5.9
2014-Sep-16 18:28N 49°50' W 124°32'1212.8
2014-Sep-16 17:33N 49°45' W 124°49'4 4.0
2014-Sep-16 16:30N 49°44' W 124°55'1213.2
2014-Sep-16 15:33N 49°49' W 124°37'1 1.3
2014-Sep-16 14:33N 49°50' W 124°36'1413.6
2014-Sep-16 13:33N 49°44' W 124°55'0 0.0
2014-Sep-16 06:19N 49°44' W 124°55'0 0.0
2014-Sep-16 05:13N 49°44' W 124°55'7 9.9
2014-Sep-16 04:33N 49°47' W 124°46'9 8.6
2014-Sep-16 03:27N 49°50' W 124°32'1414.9
2014-Sep-16 02:33N 49°45' W 124°52'2 2.3
2014-Sep-16 01:33N 49°44' W 124°55'1212.4
2014-Sep-16 00:33N 49°49' W 124°37'4 3.4
2014-Sep-15 23:30N 49°50' W 124°32'1414.6
2014-Sep-15 22:33N 49°45' W 124°52'2 1.0
2014-Sep-15 20:20N 49°44' W 124°55'1112.0
2014-Sep-15 19:24N 49°48' W 124°39'5 5.0
2014-Sep-15 18:24N 49°50' W 124°32'1213.6
2014-Sep-15 17:33N 49°46' W 124°49'5 4.3
2014-Sep-15 16:30N 49°44' W 124°55'1313.6
2014-Sep-15 15:33N 49°50' W 124°37'1 0.9
2014-Sep-15 14:34N 49°50' W 124°36'1413.6
2014-Sep-15 13:33N 49°44' W 124°55'0 0.0
2014-Sep-15 07:10N 49°44' W 124°55'0 0.0
2014-Sep-15 06:33N 49°44' W 124°55'0 0.0
2014-Sep-15 05:33N 49°44' W 124°55'8 8.3
2014-Sep-15 04:33N 49°47' W 124°43'8 7.3
2014-Sep-15 03:30N 49°50' W 124°32'1414.7
2014-Sep-15 02:33N 49°45' W 124°53'1 0.9
2014-Sep-15 01:28N 49°46' W 124°51'10 5.4
2014-Sep-14 23:33N 49°49' W 124°36'1312.9
2014-Sep-14 22:32N 49°44' W 124°55'0 0.0
2014-Sep-14 21:32N 49°44' W 124°55'0 0.0
2014-Sep-14 20:20N 49°44' W 124°55'1012.4
2014-Sep-14 19:33N 49°48' W 124°42'7 6.3
2014-Sep-14 18:30N 49°50' W 124°32'1212.6
2014-Sep-14 17:33N 49°46' W 124°49'4 4.2
2014-Sep-14 16:33N 49°44' W 124°55'1212.3
2014-Sep-14 15:33N 49°49' W 124°38'1 1.3
2014-Sep-14 14:33N 49°50' W 124°36'1313.5
2014-Sep-14 13:33N 49°44' W 124°55'0 0.0
2014-Sep-14 06:23N 49°44' W 124°55'0 0.0
2014-Sep-14 05:29N 49°44' W 124°55'6 6.1
2014-Sep-14 04:33N 49°47' W 124°47'10 7.7
2014-Sep-14 03:12N 49°50' W 124°32'811.9
2014-Sep-14 02:33N 49°47' W 124°43'9 1.7
2014-Sep-13 21:28N 49°44' W 124°55'0 0.0
2014-Sep-13 20:32N 49°44' W 124°55'1110.2
2014-Sep-13 19:27N 49°48' W 124°39'5 4.5
2014-Sep-13 18:24N 49°50' W 124°33'1213.7
2014-Sep-13 17:33N 49°46' W 124°49'4 4.1
2014-Sep-13 16:32N 49°44' W 124°55'1211.6
2014-Sep-13 15:29N 49°49' W 124°38'1 1.5
2014-Sep-13 14:33N 49°50' W 124°36'1413.5
2014-Sep-13 13:33N 49°44' W 124°55'0 0.0
2014-Sep-13 09:32N 49°44' W 124°55'0 0.0
2014-Sep-13 08:14N 49°44' W 124°55'0 0.0
2014-Sep-13 07:32N 49°44' W 124°55'0 0.0
2014-Sep-13 05:20N 49°44' W 124°55'910.6
2014-Sep-13 04:29N 49°48' W 124°43'7 7.2
2014-Sep-13 03:30N 49°50' W 124°32'1414.9
2014-Sep-13 02:33N 49°45' W 124°53'2 1.7
2014-Sep-13 01:33N 49°44' W 124°55'1212.4
2014-Sep-13 00:33N 49°49' W 124°38'3 3.2
2014-Sep-12 23:27N 49°50' W 124°33'1314.4
2014-Sep-12 22:33N 49°45' W 124°51'3 2.8
2014-Sep-12 21:32N 49°44' W 124°55'0 0.0
2014-Sep-12 20:32N 49°44' W 124°55'10 9.8
2014-Sep-12 19:32N 49°48' W 124°41'6 6.3
2014-Sep-12 18:30N 49°50' W 124°32'1212.8
2014-Sep-12 17:33N 49°46' W 124°49'4 3.6
2014-Sep-12 16:30N 49°45' W 124°55'1213.1
2014-Sep-12 15:34N 49°49' W 124°37'1 1.4
2014-Sep-12 14:33N 49°50' W 124°36'1413.5
2014-Sep-12 13:33N 49°44' W 124°55'0 0.0
2014-Sep-12 05:28N 49°44' W 124°55'6 6.1
2014-Sep-12 04:33N 49°47' W 124°47'1110.5
2014-Sep-12 03:33N 49°50' W 124°32'1312.8
2014-Sep-12 02:34N 49°46' W 124°50'4 3.5
2014-Sep-12 01:33N 49°44' W 124°55'1312.7
2014-Sep-12 00:33N 49°49' W 124°37'3 2.5
2014-Sep-11 23:27N 49°50' W 124°33'1213.7
2014-Sep-11 22:33N 49°46' W 124°51'3 3.1
2014-Sep-11 21:33N 49°44' W 124°55'0 0.0
2014-Sep-11 20:24N 49°44' W 124°55'1113.4
2014-Sep-11 19:33N 49°48' W 124°39'5 4.8
2014-Sep-11 18:32N 49°50' W 124°32'1212.0
2014-Sep-11 17:33N 49°46' W 124°49'4 4.2
2014-Sep-11 16:30N 49°44' W 124°55'1212.9
2014-Sep-11 15:33N 49°49' W 124°38'2 1.9
2014-Sep-11 14:33N 49°50' W 124°35'1414.0
2014-Sep-11 13:33N 49°45' W 124°55'0 0.0
2014-Sep-11 09:28N 49°44' W 124°55'0 0.0
2014-Sep-11 08:28N 49°44' W 124°55'9 1.5
2014-Sep-11 02:33N 49°48' W 124°43'5 0.5
2014-Sep-10 17:33N 49°46' W 124°50'2 1.3
2014-Sep-10 16:19N 49°46' W 124°52'11 6.0
2014-Sep-10 14:32N 49°49' W 124°37'0 0.0
2014-Sep-10 03:12N 49°49' W 124°37'  

Dump ship's entire track history